Time;durP1;ratioP1;P1;durP2;ratioP2;P2;SDS_P1;SDS_P2;PMS_P1;PMS_P2;Temp;Humidity;BMP_temperature;BMP_pressure;BME280_temperature;BME280_humidity;BME280_pressure;Samples;Min_cycle;Max_cycle;Signal;HPM_P1;HPM_P2
2022/08/12 00:44:52;;;;;;;9.10;3.22;;;17.80;73.00;;;;;;6155752;23;20005;-90
2022/08/12 00:47:18;;;;;;;8.25;3.35;;;17.80;73.40;;;;;;6131084;23;20014;-90
2022/08/12 00:49:48;;;;;;;3.97;2.80;;;17.70;73.90;;;;;;6130988;23;20036;-90
2022/08/12 00:52:14;;;;;;;4.63;3.33;;;17.70;74.20;;;;;;6131107;23;20009;-91
2022/08/12 00:54:43;;;;;;;7.53;3.17;;;17.80;74.30;;;;;;6131317;23;20350;-90
2022/08/12 00:57:16;;;;;;;5.15;3.08;;;17.70;74.30;;;;;;6131320;23;20011;-90
2022/08/12 00:59:54;;;;;;;5.40;2.90;;;17.70;74.60;;;;;;6131710;23;20013;-90
2022/08/12 01:02:27;;;;;;;8.35;3.33;;;17.70;74.90;;;;;;6133899;23;20064;-90
2022/08/12 01:13:16;;;;;;;9.55;4.03;;;17.40;76.10;;;;;;6159443;23;20338;-90
2022/08/12 01:15:44;;;;;;;4.70;3.15;;;17.40;76.30;;;;;;6133612;23;20418;-89
2022/08/12 01:18:15;;;;;;;8.30;3.22;;;17.30;76.60;;;;;;6133250;23;20009;-90
2022/08/12 01:21:05;;;;;;;6.13;3.03;;;17.30;76.90;;;;;;6158109;23;20013;-90
2022/08/12 01:23:34;;;;;;;9.93;3.40;;;17.20;77.30;;;;;;6157545;23;20092;-90
2022/08/12 01:26:03;;;;;;;6.63;4.07;;;17.20;77.50;;;;;;6133011;23;20014;-89
2022/08/12 01:28:31;;;;;;;7.95;3.00;;;17.20;77.60;;;;;;6133152;23;20021;-90
2022/08/12 01:31:03;;;;;;;7.38;3.30;;;17.10;77.80;;;;;;6157714;23;20010;-90
2022/08/12 01:33:36;;;;;;;4.68;3.00;;;17.00;78.00;;;;;;6157862;23;20068;-90
2022/08/12 01:36:06;;;;;;;5.63;3.30;;;17.00;78.10;;;;;;6157597;23;20014;-91
2022/08/12 01:38:34;;;;;;;4.90;3.50;;;17.10;78.50;;;;;;6157914;23;20355;-90
2022/08/12 01:41:03;;;;;;;4.80;3.13;;;17.00;78.30;;;;;;6132880;23;20009;-90
2022/08/12 01:43:30;;;;;;;6.28;3.05;;;17.00;78.50;;;;;;6133009;23;20010;-90
2022/08/12 01:46:13;;;;;;;5.03;3.30;;;17.00;79.00;;;;;;6157552;23;20005;-90
2022/08/12 01:48:54;;;;;;;5.35;3.20;;;17.00;79.00;;;;;;6132755;23;20010;-90
2022/08/12 01:51:41;;;;;;;7.60;3.07;;;17.00;79.00;;;;;;6159083;23;20438;-89
2022/08/12 01:54:14;;;;;;;5.10;3.28;;;16.90;79.30;;;;;;6132856;23;20248;-90
2022/08/12 01:57:09;;;;;;;4.13;3.13;;;16.90;79.70;;;;;;6132803;23;20013;-90
2022/08/12 01:59:46;;;;;;;7.40;3.03;;;16.90;79.90;;;;;;6157224;23;20333;-90
2022/08/12 02:02:38;;;;;;;6.68;3.15;;;16.90;80.20;;;;;;6132723;23;20060;-90
2022/08/12 02:11:21;;;;;;;5.47;3.50;;;16.80;80.70;;;;;;6157109;23;20029;-90
2022/08/12 02:14:12;;;;;;;13.40;3.67;;;16.80;80.70;;;;;;6132784;23;20010;-90
2022/08/12 02:16:40;;;;;;;5.20;3.72;;;16.80;81.10;;;;;;6132285;23;20014;-89
2022/08/12 02:19:27;;;;;;;5.60;3.55;;;16.80;81.00;;;;;;6132501;23;20060;-90
2022/08/12 02:22:25;;;;;;;5.10;3.28;;;16.90;81.50;;;;;;6132557;23;20005;-90
2022/08/12 02:24:55;;;;;;;5.45;3.45;;;16.90;81.30;;;;;;6132370;23;20016;-90
2022/08/12 02:27:23;;;;;;;4.22;2.72;;;16.90;81.60;;;;;;6157164;23;20418;-89
2022/08/12 02:29:49;;;;;;;8.07;2.90;;;16.80;82.60;;;;;;6132402;23;20009;-89
2022/08/12 02:32:15;;;;;;;11.02;3.60;;;16.80;82.20;;;;;;6157146;23;20017;-90
2022/08/12 02:34:43;;;;;;;8.50;3.20;;;16.70;82.40;;;;;;6132159;23;20009;-90
2022/08/12 02:37:14;;;;;;;13.13;3.90;;;16.80;82.40;;;;;;6132494;23;20013;-90
2022/08/12 02:39:44;;;;;;;7.72;3.63;;;16.80;83.50;;;;;;6132851;23;20081;-89
2022/08/12 02:42:12;;;;;;;6.60;3.67;;;16.80;83.00;;;;;;6157022;23;20407;-90
2022/08/12 02:44:39;;;;;;;7.35;3.38;;;16.70;83.30;;;;;;6132360;23;20349;-90
2022/08/12 02:47:07;;;;;;;5.65;3.38;;;16.70;83.50;;;;;;6132157;23;20104;-90
2022/08/12 02:49:39;;;;;;;4.03;3.60;;;16.70;83.80;;;;;;6156978;23;20002;-89
2022/08/12 02:52:06;;;;;;;6.82;3.20;;;16.70;84.00;;;;;;6157572;23;20080;-89
2022/08/12 02:54:33;;;;;;;6.32;3.63;;;16.70;84.00;;;;;;6132349;23;20010;-91
2022/08/12 02:56:59;;;;;;;10.57;3.67;;;16.70;84.40;;;;;;6156988;23;20366;-89
2022/08/12 02:59:26;;;;;;;6.32;3.67;;;16.70;84.60;;;;;;6132210;23;20089;-90
2022/08/12 03:01:55;;;;;;;7.15;3.10;;;16.60;84.90;;;;;;6132434;23;20434;-89
2022/08/12 03:04:33;;;;;;;6.75;3.60;;;16.50;85.30;;;;;;6132229;23;20434;-89
2022/08/12 03:07:08;;;;;;;8.25;3.28;;;16.50;85.80;;;;;;6132302;23;20005;-90
2022/08/12 03:09:44;;;;;;;7.35;3.53;;;16.50;86.30;;;;;;6132146;23;20005;-89
2022/08/12 03:12:12;;;;;;;8.20;4.38;;;16.50;86.60;;;;;;6132231;23;20013;-92
2022/08/12 03:14:41;;;;;;;11.20;3.58;;;16.40;86.90;;;;;;6132151;23;20014;-90
2022/08/12 03:17:33;;;;;;;11.90;3.35;;;16.40;87.30;;;;;;6158040;23;20016;-90
2022/08/12 03:20:01;;;;;;;5.57;3.58;;;16.30;87.80;;;;;;6156692;23;20010;-89
2022/08/12 03:22:30;;;;;;;9.13;4.03;;;16.30;88.30;;;;;;6156468;23;20010;-89
2022/08/12 03:25:00;;;;;;;5.35;3.70;;;16.40;88.40;;;;;;6132229;23;20080;-89
2022/08/12 03:27:28;;;;;;;9.45;3.88;;;16.40;88.40;;;;;;6132231;23;20006;-90
2022/08/12 03:29:57;;;;;;;8.15;4.03;;;16.40;88.60;;;;;;6131859;23;20088;-91
2022/08/12 03:32:24;;;;;;;7.13;3.03;;;16.30;88.80;;;;;;6156792;23;20005;-90
2022/08/12 03:34:50;;;;;;;5.03;4.00;;;16.30;89.40;;;;;;6156651;23;20016;-90
2022/08/12 03:37:20;;;;;;;5.28;3.58;;;16.30;89.60;;;;;;6132019;23;20005;-90
2022/08/12 03:39:46;;;;;;;6.55;3.65;;;16.30;89.80;;;;;;6131944;23;20017;-89
2022/08/12 03:42:32;;;;;;;7.57;3.55;;;16.30;90.00;;;;;;6131636;23;20088;-89
2022/08/12 04:01:57;;;;;;;5.57;3.30;;;16.20;91.10;;;;;;6156337;23;20097;-90
2022/08/12 04:04:34;;;;;;;4.75;3.58;;;16.10;91.10;;;;;;6131383;23;20097;-89
2022/08/12 04:07:09;;;;;;;4.40;3.45;;;16.10;91.30;;;;;;6156033;23;20010;-89
2022/08/12 04:09:37;;;;;;;6.70;3.60;;;16.10;91.40;;;;;;6155958;23;20014;-89
2022/08/12 04:14:50;;;;;;;4.80;3.28;;;16.00;91.90;;;;;;6157975;23;20016;-96
2022/08/12 04:17:17;;;;;;;3.83;3.00;;;15.90;92.10;;;;;;6157746;23;20010;-95
2022/08/12 04:19:46;;;;;;;5.38;3.45;;;15.90;92.30;;;;;;6159662;23;20009;-95
2022/08/12 04:22:12;;;;;;;5.30;3.40;;;16.00;92.40;;;;;;6133516;23;20002;-95
2022/08/12 04:24:40;;;;;;;5.85;3.67;;;16.00;92.30;;;;;;6132757;23;20311;-94
2022/08/12 04:27:09;;;;;;;5.75;3.40;;;16.00;92.40;;;;;;6158301;23;20080;-95
2022/08/12 04:29:36;;;;;;;9.90;3.63;;;16.00;92.50;;;;;;6133259;23;20016;-95
2022/08/12 04:32:02;;;;;;;5.78;3.92;;;16.00;92.50;;;;;;6158645;23;20015;-95
2022/08/12 04:34:27;;;;;;;4.40;3.55;;;16.00;92.60;;;;;;6161057;23;20088;-95
2022/08/12 04:36:53;;;;;;;6.15;3.30;;;16.00;92.70;;;;;;6134837;23;20017;-95
2022/08/12 04:39:23;;;;;;;4.07;3.13;;;16.00;92.60;;;;;;6133172;23;20470;-94
2022/08/12 04:41:48;;;;;;;3.83;3.40;;;16.00;92.70;;;;;;6133405;23;20079;-93
2022/08/12 04:44:15;;;;;;;10.00;3.25;;;16.00;92.80;;;;;;6132599;23;20089;-95
2022/08/12 04:46:41;;;;;;;5.90;3.60;;;16.10;92.80;;;;;;6157053;23;20006;-96
2022/08/12 04:49:07;;;;;;;7.82;3.72;;;16.10;92.90;;;;;;6132771;23;20092;-95
2022/08/12 04:51:34;;;;;;;5.75;3.83;;;16.10;92.90;;;;;;6133578;23;20084;-95
2022/08/12 04:57:47;;;;;;;5.22;3.50;;;16.20;92.80;;;;;;6159279;23;20037;-95
2022/08/12 05:00:15;;;;;;;4.05;3.63;;;16.30;92.60;;;;;;6132336;23;20014;-94
2022/08/12 05:02:41;;;;;;;7.68;3.33;;;16.40;92.70;;;;;;6159493;23;20064;-93
2022/08/12 05:05:11;;;;;;;7.35;3.25;;;16.30;92.90;;;;;;6131889;23;20005;-94
2022/08/12 05:07:36;;;;;;;10.02;4.00;;;16.40;92.60;;;;;;6157465;23;20080;-95
2022/08/12 05:10:03;;;;;;;6.88;3.40;;;16.40;93.00;;;;;;6134075;23;20379;-94
2022/08/12 05:12:35;;;;;;;4.13;3.35;;;16.50;92.60;;;;;;6132819;23;20092;-95
2022/08/12 05:15:01;;;;;;;5.75;3.72;;;16.50;92.50;;;;;;6158114;23;20430;-95
2022/08/12 05:17:27;;;;;;;4.82;3.60;;;16.60;92.40;;;;;;6157750;23;20016;-94
2022/08/12 05:19:53;;;;;;;7.07;4.05;;;16.60;92.40;;;;;;6132540;23;20092;-93
2022/08/12 05:22:18;;;;;;;7.60;3.72;;;16.70;92.50;;;;;;6132818;23;20025;-95
2022/08/12 05:24:45;;;;;;;5.35;3.65;;;16.70;92.70;;;;;;6157714;23;20033;-94
2022/08/12 05:27:10;;;;;;;5.05;3.65;;;16.80;92.10;;;;;;6133146;23;20085;-95
2022/08/12 05:29:38;;;;;;;12.63;3.80;;;16.80;92.10;;;;;;6157513;23;20414;-95
2022/08/12 05:32:06;;;;;;;7.88;3.63;;;16.80;92.30;;;;;;6159134;23;20009;-95
2022/08/12 05:34:33;;;;;;;6.03;3.47;;;16.90;92.20;;;;;;6157401;23;20002;-94
2022/08/12 05:37:00;;;;;;;6.50;3.45;;;17.00;91.90;;;;;;6132108;23;20005;-93
2022/08/12 05:39:26;;;;;;;4.95;2.92;;;17.10;91.90;;;;;;6155822;23;20028;-92
2022/08/12 05:41:52;;;;;;;10.05;3.97;;;17.20;91.40;;;;;;6156152;23;20002;-93
2022/08/12 05:44:18;;;;;;;8.60;3.90;;;17.30;91.40;;;;;;6131914;23;20006;-94
2022/08/12 05:46:44;;;;;;;4.10;3.05;;;17.40;91.00;;;;;;6132753;23;20031;-94
2022/08/12 05:49:10;;;;;;;4.20;3.22;;;17.40;90.70;;;;;;6133878;23;20053;-93
2022/08/12 05:51:37;;;;;;;9.77;4.53;;;17.40;90.60;;;;;;6133753;23;20303;-94
2022/08/12 05:54:04;;;;;;;9.43;3.97;;;17.50;90.60;;;;;;6133828;23;20453;-93
2022/08/12 05:56:33;;;;;;;11.32;3.50;;;17.60;90.70;;;;;;6133095;23;20012;-94
2022/08/12 05:59:00;;;;;;;8.77;4.47;;;17.70;90.50;;;;;;6133680;23;20006;-94
2022/08/12 06:01:28;;;;;;;4.97;3.53;;;17.70;90.40;;;;;;6133398;23;20009;-93
2022/08/12 06:03:54;;;;;;;5.50;3.40;;;17.80;90.10;;;;;;6133651;23;20077;-94
2022/08/12 06:06:21;;;;;;;10.23;3.42;;;17.90;89.70;;;;;;6133927;23;20009;-95
2022/08/12 06:08:52;;;;;;;9.65;3.30;;;18.00;89.40;;;;;;6133395;23;20048;-95
2022/08/12 06:11:23;;;;;;;18.92;3.90;;;18.10;89.80;;;;;;6133543;23;20006;-95
2022/08/12 06:13:50;;;;;;;6.10;3.10;;;18.20;88.90;;;;;;6133959;23;20408;-95
2022/08/12 06:16:18;;;;;;;5.53;3.70;;;18.30;88.70;;;;;;6133933;23;20035;-94
2022/08/12 06:18:44;;;;;;;3.33;2.95;;;18.40;87.80;;;;;;6133690;23;20010;-95
2022/08/12 06:21:15;;;;;;;3.60;3.05;;;18.50;87.40;;;;;;6158393;23;20010;-95
2022/08/12 06:23:42;;;;;;;5.72;3.05;;;18.60;86.30;;;;;;6133191;23;20010;-93
2022/08/12 06:26:11;;;;;;;5.78;3.05;;;18.70;87.30;;;;;;6133742;23;20109;-94
2022/08/12 06:28:50;;;;;;;3.78;3.05;;;18.80;85.80;;;;;;6133102;23;20064;-93
2022/08/12 06:31:17;;;;;;;10.25;3.72;;;18.80;86.50;;;;;;6132957;23;20333;-93
2022/08/12 06:33:46;;;;;;;8.50;3.50;;;18.90;84.90;;;;;;6133128;23;20010;-94
2022/08/12 06:36:14;;;;;;;6.75;3.40;;;19.00;84.50;;;;;;6133183;23;20036;-89
2022/08/12 06:38:41;;;;;;;8.52;3.35;;;19.00;84.50;;;;;;6133560;23;20088;-94
2022/08/12 06:43:52;;;;;;;4.20;2.80;;;19.30;83.60;;;;;;6157863;23;20061;-94
2022/08/12 06:46:23;;;;;;;8.13;3.47;;;19.30;83.70;;;;;;6134908;23;20017;-95
2022/08/12 06:48:55;;;;;;;6.38;3.47;;;19.30;84.10;;;;;;6159400;23;20014;-94
2022/08/12 06:51:21;;;;;;;6.13;2.75;;;19.40;83.30;;;;;;6158934;23;20013;-95
2022/08/12 06:53:47;;;;;;;7.00;2.92;;;19.40;83.10;;;;;;6135521;23;20009;-93
2022/08/12 06:56:13;;;;;;;6.40;2.78;;;19.60;82.60;;;;;;6135450;23;20345;-95
2022/08/12 06:58:39;;;;;;;5.18;3.53;;;19.60;82.20;;;;;;6159890;23;20081;-94
2022/08/12 07:01:05;;;;;;;8.68;3.63;;;19.70;82.30;;;;;;6158151;23;20005;-95
2022/08/12 07:03:32;;;;;;;7.78;3.47;;;19.70;82.20;;;;;;6133426;23;20005;-93
2022/08/12 07:06:00;;;;;;;6.00;3.28;;;19.80;82.00;;;;;;6160674;23;20009;-94
2022/08/12 07:08:28;;;;;;;5.13;2.60;;;19.90;82.40;;;;;;6157503;23;20009;-94
2022/08/12 07:10:57;;;;;;;5.32;2.85;;;20.00;81.10;;;;;;6157415;23;20010;-95
2022/08/12 07:13:37;;;;;;;3.20;2.78;;;20.00;81.20;;;;;;6158689;23;20337;-94
2022/08/12 07:16:20;;;;;;;5.53;3.28;;;20.10;81.60;;;;;;6133276;23;20068;-92
2022/08/12 07:18:49;;;;;;;7.55;2.90;;;20.30;81.10;;;;;;6133083;23;20427;-94
2022/08/12 07:21:15;;;;;;;6.80;2.80;;;20.50;80.50;;;;;;6158434;23;20430;-94
2022/08/12 07:23:42;;;;;;;6.80;2.58;;;20.60;78.80;;;;;;6138822;23;20006;-92
2022/08/12 07:26:10;;;;;;;4.13;2.55;;;20.60;78.30;;;;;;6135342;23;20005;-94
2022/08/12 07:28:38;;;;;;;6.38;2.90;;;20.60;78.70;;;;;;6133488;23;20071;-94
2022/08/12 07:31:07;;;;;;;10.55;2.75;;;20.70;77.50;;;;;;6157528;23;20016;-93
2022/08/12 07:33:37;;;;;;;7.28;3.67;;;20.90;77.50;;;;;;6156317;23;20016;-92
2022/08/12 07:36:05;;;;;;;5.20;2.65;;;21.00;76.60;;;;;;6131932;23;20005;-94
2022/08/12 07:38:38;;;;;;;6.82;3.42;;;21.00;76.90;;;;;;6132324;23;20059;-94
2022/08/12 07:41:10;;;;;;;4.80;2.75;;;21.20;76.80;;;;;;6157588;23;20009;-93
2022/08/12 07:43:42;;;;;;;8.70;2.78;;;21.20;76.00;;;;;;6132746;23;20141;-93
2022/08/12 07:46:11;;;;;;;5.80;2.78;;;21.30;75.80;;;;;;6132590;23;20338;-93
2022/08/12 07:48:41;;;;;;;6.70;2.75;;;21.30;75.70;;;;;;6132620;23;20088;-92
2022/08/12 07:51:07;;;;;;;7.40;2.95;;;21.50;74.60;;;;;;6132737;23;20009;-92
2022/08/12 07:53:34;;;;;;;7.10;2.70;;;21.60;74.30;;;;;;6156651;23;20080;-94
2022/08/12 07:56:00;;;;;;;3.05;2.63;;;21.70;73.90;;;;;;6157110;23;20017;-94
2022/08/12 07:58:26;;;;;;;7.68;2.60;;;21.80;73.50;;;;;;6131852;23;20009;-92
2022/08/12 08:00:56;;;;;;;6.15;3.10;;;21.90;72.90;;;;;;6157036;23;20013;-94
2022/08/12 08:03:24;;;;;;;4.53;2.30;;;21.90;72.40;;;;;;6157446;23;20088;-93
2022/08/12 08:05:51;;;;;;;4.97;3.00;;;21.90;72.90;;;;;;6133230;23;20009;-92
2022/08/12 08:08:25;;;;;;;4.00;2.97;;;22.00;72.60;;;;;;6133516;23;20005;-95
2022/08/12 08:12:52;;;;;;;6.13;2.40;;;22.00;72.10;;;;;;6133633;23;20009;-93
2022/08/12 08:13:40;;;;;;;2.95;2.40;;;22.10;72.50;;;;;;6158160;23;20013;-93
2022/08/12 08:16:09;;;;;;;5.53;2.35;;;22.20;71.30;;;;;;6157629;23;20017;-93
2022/08/12 08:18:35;;;;;;;9.95;2.60;;;22.20;70.40;;;;;;6157270;23;20100;-91
2022/08/12 08:21:02;;;;;;;7.30;2.20;;;22.30;69.90;;;;;;6156394;23;20009;-93
2022/08/12 08:26:14;;;;;;;3.45;2.42;;;22.60;70.20;;;;;;6157517;23;20001;-92
2022/08/12 08:28:40;;;;;;;5.10;2.30;;;22.70;68.70;;;;;;6132417;23;20064;-95
2022/08/12 08:31:06;;;;;;;4.68;2.30;;;22.80;68.00;;;;;;6133400;23;20065;-93
2022/08/12 08:33:32;;;;;;;5.25;2.22;;;22.70;66.60;;;;;;6157779;23;20010;-93
2022/08/12 08:35:58;;;;;;;10.40;2.40;;;22.70;68.40;;;;;;6132616;23;20016;-91
2022/08/12 08:38:24;;;;;;;9.30;2.50;;;22.80;68.10;;;;;;6132864;23;20663;-93
2022/08/12 08:43:34;;;;;;;8.73;2.50;;;24.20;64.50;;;;;;6156642;23;20440;-94
2022/08/12 08:46:04;;;;;;;2.55;2.05;;;25.50;61.70;;;;;;6131409;23;20009;-92
2022/08/12 08:48:31;;;;;;;4.60;2.15;;;26.70;59.10;;;;;;6132652;23;20431;-94
2022/08/12 08:50:58;;;;;;;2.65;1.88;;;27.20;57.10;;;;;;6132061;23;20315;-91
2022/08/12 08:53:24;;;;;;;7.60;1.98;;;27.90;56.60;;;;;;6156551;23;20012;-93
2022/08/12 08:56:02;;;;;;;12.25;2.22;;;28.00;56.10;;;;;;6156416;23;20088;-92
2022/08/12 08:58:28;;;;;;;4.50;2.55;;;28.60;54.70;;;;;;6132056;23;20028;-86
2022/08/12 09:00:55;;;;;;;11.20;3.45;;;28.20;55.10;;;;;;6129561;23;20005;-86
2022/08/12 09:03:20;;;;;;;1.98;1.70;;;28.30;55.00;;;;;;6155639;23;20002;-87
2022/08/12 09:05:46;;;;;;;8.00;2.17;;;28.90;54.10;;;;;;6154138;23;20014;-86
2022/08/12 09:08:43;;;;;;;5.28;2.05;;;29.70;53.20;;;;;;6155342;23;20101;-93
2022/08/12 09:13:54;;;;;;;4.80;1.90;;;29.30;51.50;;;;;;6151666;23;20018;-91
2022/08/12 09:16:19;;;;;;;3.70;1.73;;;29.30;50.50;;;;;;6130140;23;20076;-91
2022/08/12 09:18:46;;;;;;;4.38;1.90;;;29.30;50.00;;;;;;6155069;23;20072;-90
2022/08/12 09:21:12;;;;;;;4.80;2.00;;;29.40;50.00;;;;;;6156203;23;20005;-90
2022/08/12 09:23:39;;;;;;;5.13;1.92;;;29.20;50.00;;;;;;6156757;23;20040;-90
2022/08/12 09:26:07;;;;;;;6.80;2.15;;;29.00;50.70;;;;;;6132482;23;20012;-91
2022/08/12 09:28:34;;;;;;;8.75;2.17;;;29.50;50.20;;;;;;6132052;23;20069;-90
2022/08/12 09:31:00;;;;;;;4.50;1.98;;;29.50;50.20;;;;;;6131323;23;20068;-90
2022/08/12 09:33:32;;;;;;;7.13;2.00;;;30.10;49.40;;;;;;6157544;23;20009;-90
2022/08/12 09:35:59;;;;;;;2.03;1.83;;;30.40;49.10;;;;;;6132356;23;20316;-88
2022/08/12 09:38:28;;;;;;;6.25;1.80;;;30.80;49.10;;;;;;6156539;23;20012;-91
2022/08/12 09:40:54;;;;;;;5.65;2.10;;;30.10;50.00;;;;;;6156073;23;20496;-89
2022/08/12 09:46:05;;;;;;;5.22;1.98;;;29.00;50.70;;;;;;6156764;23;20012;-89
2022/08/12 09:48:32;;;;;;;2.35;1.90;;;29.40;50.80;;;;;;6131738;23;20014;-89
2022/08/12 09:50:59;;;;;;;3.00;1.90;;;29.60;49.30;;;;;;6131163;23;20148;-91
2022/08/12 09:53:26;;;;;;;8.93;2.20;;;29.40;49.00;;;;;;6131337;23;20056;-89
2022/08/12 09:55:56;;;;;;;5.07;2.10;;;28.70;49.60;;;;;;6131374;23;20009;-90
2022/08/12 09:58:27;;;;;;;5.07;1.90;;;28.90;50.20;;;;;;6131116;23;20426;-89
2022/08/12 10:01:03;;;;;;;7.65;2.20;;;28.80;50.20;;;;;;6155510;23;20080;-88
2022/08/12 10:03:35;;;;;;;11.70;2.03;;;28.80;50.20;;;;;;6130868;23;20005;-92
2022/08/12 10:06:05;;;;;;;2.30;1.95;;;28.80;50.30;;;;;;6156205;23;20048;-90
2022/08/12 10:08:33;;;;;;;3.27;1.90;;;27.90;51.30;;;;;;6132099;23;20009;-90
2022/08/12 10:13:46;;;;;;;3.08;1.70;;;27.70;52.20;;;;;;6156995;23;20017;-84
2022/08/12 10:16:13;;;;;;;4.95;1.67;;;27.60;51.30;;;;;;6155015;23;20008;-84
2022/08/12 10:18:43;;;;;;;5.07;2.38;;;27.60;50.30;;;;;;6129829;23;20105;-84
2022/08/12 10:21:13;;;;;;;;;;;27.70;50.40;;;;;;6130973;23;20013;-84
2022/08/12 10:23:41;;;;;;;6.55;2.60;;;27.60;50.00;;;;;;6129930;23;19927;-84
2022/08/12 10:31:44;;;;;;;5.35;2.08;;;28.20;50.10;;;;;;6154607;23;20377;-84
2022/08/12 10:34:12;;;;;;;5.47;1.90;;;28.40;50.20;;;;;;6130267;23;20854;-83
2022/08/12 10:36:41;;;;;;;4.82;1.75;;;28.80;50.50;;;;;;6130641;23;20534;-84
2022/08/12 10:39:09;;;;;;;5.88;1.80;;;29.00;49.80;;;;;;6156831;23;20009;-84
2022/08/12 10:44:21;;;;;;;6.90;2.28;;;29.80;47.70;;;;;;6156116;23;20092;-84
2022/08/12 10:46:49;;;;;;;2.65;1.80;;;29.70;48.10;;;;;;6129970;23;20676;-84
2022/08/12 10:49:15;;;;;;;6.72;1.63;;;30.10;49.20;;;;;;6156248;23;20059;-85
2022/08/12 10:51:40;;;;;;;5.05;1.88;;;29.90;48.80;;;;;;6155019;23;20018;-84
2022/08/12 10:54:07;;;;;;;3.60;1.75;;;29.30;47.80;;;;;;6154671;23;20017;-83
2022/08/12 10:56:35;;;;;;;5.57;2.35;;;28.50;49.40;;;;;;6130316;23;20064;-84
2022/08/12 10:59:04;;;;;;;6.32;1.85;;;28.40;49.80;;;;;;6130239;23;20100;-84
2022/08/12 11:01:30;;;;;;;5.82;1.90;;;28.70;49.90;;;;;;6129838;23;20509;-84
2022/08/12 11:03:56;;;;;;;3.60;1.90;;;29.30;50.20;;;;;;6154416;23;20010;-84
2022/08/12 11:06:22;;;;;;;3.45;2.50;;;29.50;48.20;;;;;;6152941;23;20072;-84
2022/08/12 11:09:23;;;;;;;7.15;1.60;;;29.80;48.80;;;;;;6129691;23;20013;-84
2022/08/12 11:11:49;;;;;;;5.85;1.83;;;30.10;47.80;;;;;;6130045;23;20338;-84
2022/08/12 11:14:17;;;;;;;3.85;1.70;;;30.30;47.70;;;;;;6129829;23;20009;-84
2022/08/12 11:16:43;;;;;;;9.45;2.38;;;29.30;48.50;;;;;;6129768;23;20033;-84
2022/08/12 11:19:10;;;;;;;3.28;1.85;;;29.20;48.70;;;;;;6129700;23;20291;-84
2022/08/12 11:21:36;;;;;;;3.92;1.83;;;29.30;49.10;;;;;;6129573;23;20009;-84
2022/08/12 11:24:24;;;;;;;4.82;1.85;;;29.10;49.90;;;;;;6129794;23;20068;-84
2022/08/12 11:26:54;;;;;;;4.53;1.80;;;29.40;49.30;;;;;;6129514;23;20701;-84
2022/08/12 11:29:22;;;;;;;6.78;1.90;;;28.90;49.50;;;;;;6154219;23;20518;-84
2022/08/12 11:31:48;;;;;;;5.28;1.95;;;28.40;50.40;;;;;;6129838;23;20056;-84
2022/08/12 11:34:15;;;;;;;2.90;1.88;;;28.90;51.10;;;;;;6129954;23;20430;-84
2022/08/12 11:37:06;;;;;;;8.40;2.10;;;29.50;49.20;;;;;;6154651;23;20732;-85
2022/08/12 11:39:33;;;;;;;5.38;1.98;;;30.00;48.20;;;;;;6154484;23;20012;-84
2022/08/12 11:42:01;;;;;;;2.95;1.77;;;29.70;48.30;;;;;;6155747;23;20013;-84
2022/08/12 11:44:27;;;;;;;5.45;1.88;;;29.20;48.80;;;;;;6128804;23;20092;-84
2022/08/12 11:46:53;;;;;;;3.42;1.70;;;29.40;48.70;;;;;;6153930;23;20041;-85
2022/08/12 11:49:23;;;;;;;4.82;1.95;;;29.80;47.70;;;;;;6154020;23;20072;-84
2022/08/12 11:51:49;;;;;;;6.15;1.75;;;29.90;47.10;;;;;;6153325;23;20016;-84
2022/08/12 11:54:15;;;;;;;4.85;1.75;;;29.80;47.00;;;;;;6129301;23;20013;-84
2022/08/12 11:56:40;;;;;;;5.40;1.80;;;29.30;48.80;;;;;;6155443;23;20064;-84
2022/08/12 11:59:06;;;;;;;3.83;1.80;;;29.20;49.00;;;;;;6153834;23;20509;-84
2022/08/12 12:01:35;;;;;;;8.63;1.90;;;29.30;49.20;;;;;;6129814;23;20014;-84
2022/08/12 12:04:01;;;;;;;4.38;2.13;;;28.90;49.30;;;;;;6129459;23;20002;-84
2022/08/12 12:06:27;;;;;;;6.13;2.17;;;28.40;49.10;;;;;;6154294;23;20002;-85
2022/08/12 12:08:52;;;;;;;5.82;2.80;;;28.60;48.80;;;;;;6154310;23;20067;-84
2022/08/12 12:11:18;;;;;;;9.77;1.65;;;28.50;48.80;;;;;;6152663;23;20020;-84
2022/08/12 12:13:45;;;;;;;7.85;2.10;;;28.30;48.90;;;;;;6128946;23;20021;-84
2022/08/12 12:16:10;;;;;;;6.13;2.00;;;28.50;48.70;;;;;;6153784;23;20010;-84
2022/08/12 12:18:36;;;;;;;3.42;2.00;;;28.10;48.70;;;;;;6128416;23;20090;-83
2022/08/12 12:21:05;;;;;;;4.53;1.70;;;28.00;49.20;;;;;;6154078;23;20013;-84
2022/08/12 12:23:33;;;;;;;4.68;1.90;;;28.10;49.50;;;;;;6153631;23;20037;-85
2022/08/12 12:26:00;;;;;;;4.97;1.77;;;28.80;48.70;;;;;;6126265;23;20092;-84
2022/08/12 12:28:25;;;;;;;8.10;1.83;;;29.10;48.00;;;;;;6154063;23;19998;-84
2022/08/12 12:30:51;;;;;;;2.90;1.83;;;29.00;48.00;;;;;;6154895;23;20032;-84
2022/08/12 12:37:12;;;;;;;1.85;1.60;;;28.80;49.10;;;;;;6155029;23;20029;-84
2022/08/12 12:39:39;;;;;;;7.03;2.00;;;28.90;48.50;;;;;;6128625;23;20013;-84
2022/08/12 12:42:05;;;;;;;4.13;1.63;;;29.50;47.50;;;;;;6128491;23;20010;-84
2022/08/12 12:45:16;;;;;;;6.25;1.70;;;30.10;47.20;;;;;;6128595;23;20009;-85
2022/08/12 12:48:11;;;;;;;6.50;1.73;;;30.30;47.20;;;;;;6128905;23;20374;-84
2022/08/12 12:50:39;;;;;;;6.70;1.50;;;30.80;46.30;;;;;;6107572;23;20430;-84
2022/08/12 12:53:06;;;;;;;3.55;1.48;;;31.20;46.00;;;;;;6128424;23;20009;-84
2022/08/12 12:55:34;;;;;;;2.90;1.70;;;30.60;44.50;;;;;;6128038;23;20481;-84
2022/08/12 12:58:15;;;;;;;5.68;1.50;;;29.70;45.40;;;;;;6128405;23;20100;-85
2022/08/12 13:00:43;;;;;;;3.78;1.55;;;29.30;47.40;;;;;;6153983;23;20010;-84
2022/08/12 13:03:11;;;;;;;4.55;1.42;;;29.70;46.30;;;;;;6128448;23;20366;-85
2022/08/12 13:05:37;;;;;;;9.40;2.13;;;29.60;46.40;;;;;;6129292;23;20386;-84
2022/08/12 13:08:23;;;;;;;2.25;1.45;;;29.70;46.50;;;;;;6128472;23;20481;-84
2022/08/12 13:10:50;;;;;;;3.75;1.40;;;30.00;46.60;;;;;;6129310;23;20457;-84
2022/08/12 13:13:19;;;;;;;2.15;1.58;;;30.50;45.60;;;;;;6153662;23;20025;-85
2022/08/12 13:15:48;;;;;;;5.40;1.75;;;31.30;44.80;;;;;;6155111;23;20016;-85
2022/08/12 13:18:18;;;;;;;3.28;1.52;;;32.20;44.30;;;;;;6129807;23;20481;-85
2022/08/12 13:20:45;;;;;;;7.43;1.63;;;32.50;43.30;;;;;;6129505;23;20010;-85
2022/08/12 13:23:12;;;;;;;2.67;1.40;;;32.20;43.00;;;;;;6128781;23;20020;-85
2022/08/12 13:25:41;;;;;;;6.22;1.70;;;31.10;44.50;;;;;;6128929;23;20006;-85
2022/08/12 13:28:20;;;;;;;4.95;1.50;;;30.10;45.40;;;;;;6129158;23;20354;-85
2022/08/12 13:30:47;;;;;;;8.48;1.55;;;30.30;45.50;;;;;;6153335;23;20479;-85
2022/08/12 13:33:14;;;;;;;2.05;1.50;;;29.90;45.00;;;;;;6152389;23;20092;-85
2022/08/12 13:35:41;;;;;;;7.00;2.13;;;30.60;45.90;;;;;;6153205;23;20018;-84
2022/08/12 13:38:09;;;;;;;13.45;2.53;;;30.90;44.70;;;;;;6128450;23;20020;-85
2022/08/12 13:40:38;;;;;;;7.28;1.63;;;31.20;45.00;;;;;;6153265;23;20013;-85
2022/08/12 13:43:05;;;;;;;6.65;1.40;;;31.40;44.30;;;;;;6129023;23;20085;-85
2022/08/12 13:45:31;;;;;;;3.83;1.83;;;30.50;44.90;;;;;;6128823;23;20096;-84
2022/08/12 13:48:02;;;;;;;4.60;1.50;;;29.30;46.50;;;;;;6153248;23;20013;-84
2022/08/12 13:50:32;;;;;;;4.25;1.55;;;28.40;47.50;;;;;;6153574;23;20383;-84
2022/08/12 13:53:04;;;;;;;3.43;1.80;;;27.70;47.90;;;;;;6153335;23;20072;-83
2022/08/12 13:55:30;;;;;;;2.65;1.50;;;27.80;49.80;;;;;;6153481;23;20010;-84
2022/08/12 13:57:56;;;;;;;2.83;1.58;;;28.20;47.40;;;;;;6128824;23;20509;-83
2022/08/12 14:00:25;;;;;;;6.60;1.80;;;28.50;47.60;;;;;;6128685;23;20063;-84
2022/08/12 14:02:51;;;;;;;3.60;2.03;;;28.80;46.60;;;;;;6129419;23;20010;-84
2022/08/12 14:05:18;;;;;;;6.88;1.58;;;28.70;46.80;;;;;;6154973;23;20001;-84
2022/08/12 14:07:54;;;;;;;4.32;1.20;;;28.80;47.70;;;;;;6155156;23;20006;-85
2022/08/12 14:10:38;;;;;;;4.95;1.42;;;28.90;46.50;;;;;;6155689;23;20013;-84
2022/08/12 14:13:13;;;;;;;7.70;1.80;;;28.90;47.30;;;;;;6130026;23;20068;-83
2022/08/12 14:15:51;;;;;;;6.68;1.60;;;28.60;48.30;;;;;;6155533;23;20044;-83
2022/08/12 14:18:31;;;;;;;2.35;1.42;;;28.30;48.70;;;;;;6130759;23;20045;-83
2022/08/12 14:21:04;;;;;;;6.72;1.40;;;28.30;47.80;;;;;;6130651;23;20438;-83
2022/08/12 14:23:31;;;;;;;6.00;2.08;;;28.50;47.70;;;;;;6155137;23;20389;-84
2022/08/12 14:25:59;;;;;;;6.03;2.05;;;28.20;47.60;;;;;;6130580;23;20013;-83
2022/08/12 14:28:33;;;;;;;3.53;1.83;;;28.20;47.40;;;;;;6155165;23;20315;-83
2022/08/12 14:31:04;;;;;;;1.90;1.50;;;28.20;48.00;;;;;;6130622;23;20010;-83
2022/08/12 14:33:37;;;;;;;2.20;1.77;;;28.10;47.20;;;;;;6154888;23;20096;-84
2022/08/12 14:36:08;;;;;;;9.57;1.40;;;28.40;47.50;;;;;;6130629;23;20096;-84
2022/08/12 14:38:43;;;;;;;5.05;1.70;;;28.60;47.40;;;;;;6130400;23;20010;-84
2022/08/12 14:41:10;;;;;;;4.43;1.85;;;28.90;47.80;;;;;;6155051;23;20067;-84
2022/08/12 14:43:37;;;;;;;5.78;1.52;;;28.70;47.50;;;;;;6155184;23;20005;-84
2022/08/12 14:46:14;;;;;;;4.72;1.48;;;28.70;47.70;;;;;;6154415;23;20088;-84
2022/08/12 14:48:43;;;;;;;4.00;1.65;;;29.10;46.60;;;;;;6130605;23;20109;-83